News    GLOBAL    TV    HD    3D    Ultra HD    Radio    Data    Temp.FTA    [-]    Clair

Annuaire & Zapping Satellite Européen
Recherche des Chaînes:
Hot Bird 13E (13.0°E) Répéteur 158
NEWS - [+] [-] - Temporairement en clair - CHAINES - BOUQUETS - FAISCEAUX - CIMETIERE
10.0E>
<16.0E

Position orbitale Satellite Norad .ini News chaînes Chaines en clair Longitude Declination now Max declination Azimuth Elevation Mise à jour
13.0°E Hot Bird 13E 28946 327 220 13.07°E 0.03° 0.06° N/A N/A 2020-11-24 21:16
13.0°E Hot Bird 13B 29270 701 281 13.05°E -0.06° 0.06° N/A N/A 2020-12-03 12:10
13.0°E Hot Bird 13C 33459 609 225 13.05°E -0.04° 0.06° N/A N/A 2020-12-03 12:09


Tri par: Cryptage: Affichage:

35 réponse(s) - Tri par fréquence - Dernières mises à jour: CET

Pos Satellite Frequence Pol Txp Beam Standard Modulation SR/FEC Network, bitrate NID TID
13.0°E 35Hot Bird 13E 11662.00V158EuropeDVB-S28PSK27500 3/459.9 Mb/s 31815800 Formulaire de mise à jour des informations publiées
Emilia Romagna 24 Italie Régionale Telespazio Clair 16920 1251 1252 ita  1255  1251    2019-06-11 +
TRM Network Italie Divers Telespazio Clair 16922 1351 1352 ita  1355  1351    2019-06-06 +
Redlight HD Italie Pornographique Cyfrowy Polsat
Platforma Canal+
Nova
-115-TeleSat
Conax
DVB Scrambling
Irdeto 2
Mediaguard 3
Nagravision 3
Viaccess 4.0
Viaccess 5.0
Viaccess 6.0
16932 225 235  1932  225    2020-07-18 +
Vivid Red HD! Cyfrowy Polsat Irdeto 2
Nagravision 3
16942 2110 2111 eng  1942  2110    2018-12-25
Redlight HD! Cyfrowy Polsat Nagravision 3 16943 225 235 ita  611  225    2016-03-25

Tele Padre Pio Italie Religion Telespazio Clair 16952 650 651 ita  1070  650    2019-08-17 +
Tele 5 Polska
Pologne Généraliste Telespazio Clair 16955 2011 2012 pol  1855  2011    2016-03-25 +
Polonia 1
Pologne Généraliste Telespazio Clair 16956 2021 2022 pol  1856  2021    2016-03-25 +
Water Planet
Pologne Documentaires Cyfrowy Polsat Irdeto 2
Nagravision 3
16958 2041 2042 pol  1858  2041    2018-08-04 +
Novela TV
Pologne Séries Cyfrowy Polsat Irdeto 2
Nagravision 3
16960 2061 2062 pol  1860  2061    2018-08-04 +
TV Romania International Roumanie Généraliste Telespazio Clair 16961 2967 3967 rom  1967  2967  5967  2019-07-21 +
Radio Italia TV Italie Musicale Telespazio Clair 16962 1010 1012 ita  1962  1010    2017-01-19 +
Unire Sat HD Italie Courses Telespazio Clair 16963 2963 3963
4963 
1963  2963    2016-03-25 +
Arte Atelier Italie Culturelle Telespazio Clair 16964 1101 1102 ita  1105  1101    2019-06-04 +
Antichità Chiossone Italie Télé Achat Telespazio Clair 16965 1976 1977 eng  1965  1976    2018-02-05 +
Radio Italia Trend TV HD Italie Musicale Telespazio Clair 16966 1968 1969 ita  1966  1968    2019-07-16 +
Suryoyo Sat Suède Divers Telespazio Clair 16967 2447 2448 eng  2449  2447    2019-06-27 +
Venus TV Italy Italie Divers Telespazio Clair 16969 1131 1132 ita  1136  1131    2019-06-06 +
Music Life Italie Musicale Telespazio Clair 16970 1131 1132 ita  1337  1131    2019-06-06 +
Lazio Channel Italie Généraliste Telespazio Clair 16971 1131 1132 ita  1348  1131    2019-06-06 +
Fuego Italie Erotique Telespazio Clair 16973 1131 1132 ita  1339  1131    2019-06-06 +
Radio Kiss Kiss TV Italie Divertissement Telespazio Clair 16976 2017 2018 ita  2015  2017    2019-10-30 +
RDS Social TV Italie Chat Telespazio Clair 16977 5302 5303 ita  1987  5302    2018-10-05 +
RDS Social TV Italie Chat Telespazio Clair 16978 1974 1975 ita  1978  1974    2020-09-20 +
QVC Italia HD Italie Télé Achat Telespazio Clair 16979 1833 1834 ita  1679  1833    2019-11-06 +
BFC Italie Economique Telespazio Clair 16980 1111 1112 ita  1570  1111    2019-08-17 +
CIAO Italie Divers Telespazio Clair 16983 1191 1192 ita  1195  1191    2019-06-17 +
Napoli Mia Italie Régionale Telespazio Clair 16986 1191 1192 eng  1196  1191    2019-06-04 +
TVA Vicenza Italie Régionale Telespazio Clair 16988 1993 1994 ita  1995  1993    2016-03-25 +
Videolina
Italie Régionale Telespazio Clair 16992 2195 2193  1770  2195    2018-12-22 +
TeleItalia Italie Pornographique Telespazio Clair 16993 1191 1192 eng  1197  1191    2019-06-04 +
Eursat Italie Divers Telespazio Clair 16996 1131 1132 ita  1135  1131    2019-06-04 +
Digiquest Promo indéfini Bandes Annonces Telespazio Clair 16998 2001 2202 eng  1936  2001    2018-10-27 +
Vivid Red HD Pologne Pornographique Cyfrowy Polsat
Nova
DVB Scrambling
Irdeto 2
Nagravision 3
Viaccess 4.0
Viaccess 5.0
Viaccess 6.0
16999 2110 2111  2100  2110    2020-07-18 +
Radio Number One Telespazio Clair 16981   199 ita  2099  199    2019-05-08

Caractéristiques détaillées des flux du transpondeur (11662.00 V)

SID Ident. PID Format Colorimetry Width Height Aspect Ratio Frame rate
Sampling rate
Bitrate mode Bitrate Scan type Mise à jour
16920 Emilia Romagna 24 1251 AVC, High@L3.2 4:2:0 720 576 16:9 25.000 FPS MBAFF 2020-12-03
16920 Emilia Romagna 24 1252 MPEG Audio Version 1, Layer 22 channels 48.0 kHz Constant 96.0 kb/s 2020-12-03
16922 TRM h24 1351 AVC, High@L3.2 4:2:0 720 576 16:9 25.000 FPS MBAFF 2020-12-03
16922 TRM h24 1352 MPEG Audio Version 1, Layer 22 channels 48.0 kHz Constant 96.0 kb/s 2020-12-03
16932 Redlight HD 225 AVC Version 2, High@L4 4:2:0 N/A N/A 25.000 FPS 2020-12-03
16932 Redlight HD 235 MPEG Audio, Layer 2 Constant 150 kb/s 2020-12-03
16952 Padre Pio Tv 650 AVC, High@L3.2 4:2:0 960 1080 16:9 25.000 FPS Constant (956 kb/s) MBAFF 2020-12-03
16952 Padre Pio Tv 651 MPEG Audio Version 1, Layer 22 channels 48.0 kHz Constant 128 kb/s 2020-12-03
16955 TELE 5 2011 AVC, High@L4 4:2:0 720 576 16:9 25.000 FPS Constant (1 088 kb/s) Interlaced 2020-12-03
16955 TELE 5 2012 MPEG Audio Version 1, Layer 22 channels 48.0 kHz Constant 128 kb/s 2020-12-03
16956 Polonia 1 2021 AVC, High@L4 4:2:0 720 576 16:9 25.000 FPS Constant (960 kb/s) Interlaced 2020-12-03
16956 Polonia 1 2022 MPEG Audio Version 1, Layer 22 channels 48.0 kHz Constant 128 kb/s 2020-12-03
16958 Water Planet 2041 AVC N/A N/A 2020-12-03
16958 Water Planet 2042 MPEG Audio 164 kb/s 2020-12-03
16960 Novela Tv 2061 AVC N/A N/A 2020-12-03
16960 Novela Tv 2062 MPEG Audio 164 kb/s 2020-12-03
16961 TVR International HB 2967 AVC, High@L3 4:2:0 720 576 16:9 25.000 FPS MBAFF 2020-12-03
16961 TVR International HB 3967 MPEG Audio Version 1, Layer 22 channels 48.0 kHz Constant 192 kb/s 2020-12-03
16961 TVR International HB 5967 Teletext 2020-12-03
16962 Radio Italia Tv HD 1010 AVC, High@L4.1 4:2:0 1920 1080 16:9 25.000 FPS Interlaced 2020-12-03
16962 Radio Italia Tv HD 1012 MPEG Audio Version 1, Layer 22 channels 48.0 kHz Constant 256 kb/s 2020-12-03
16963 UNIRESAT HD 2963 AVC, High@L4 4:2:0 1920 1080 16:9 25.000 FPS Variable Interlaced 2020-12-03
16963 UNIRESAT HD 3963 MPEG Audio Version 1, Layer 22 channels 48.0 kHz Constant 128 kb/s 2020-12-03
16964 Arte Atelier 1101 AVC, High@L3.2 4:2:0 720 576 16:9 25.000 FPS MBAFF 2020-12-03
16964 Arte Atelier 1102 MPEG Audio Version 1, Layer 22 channels 48.0 kHz Constant 64.0 kb/s 2020-12-03
16965 Antichita Chiossone 1976 AVC Version 2, Main@L3 4:2:0 704 576 16:9 25.000 FPS Interlaced 2020-12-03
16965 Antichita Chiossone 1977 MPEG Audio Version 1, Layer 22 channels 48.0 kHz Constant 64.0 kb/s 2020-12-03
16966 Radio Italia Trend TV HD 1968 AVC, Main@L4 4:2:0 1920 1080 16:9 25.000 FPS Interlaced 2020-12-03
16966 Radio Italia Trend TV HD 1969 MPEG Audio Version 1, Layer 22 channels 48.0 kHz Constant 128 kb/s 2020-12-03
16967 SURYOYO SAT 2447 AVC, Main@L3 4:2:0 720 576 16:9 25.000 FPS Interlaced 2020-12-03
16967 SURYOYO SAT 2448 MPEG Audio Version 1, Layer 22 channels 48.0 kHz Constant 128 kb/s 2020-12-03
16976 Radio Kiss Kiss Tv 2017 AVC, High@L4 4:2:0 1440 1080 16:9 25.000 FPS Interlaced 2020-12-03
16976 Radio Kiss Kiss Tv 2018 MPEG Audio Version 1, Layer 22 channels 48.0 kHz Constant 192 kb/s 2020-12-03
16977 RDS Social TV 5302 AVC Version 2, Main@L4 4:2:0 1920 1080 16:9 25.000 FPS Interlaced 2020-12-03
16977 RDS Social TV 5303 MPEG Audio Version 1, Layer 22 channels 48.0 kHz Constant 256 kb/s 2020-12-03
16977 RDS Social TV 5305 MPEG Audio Version 1, Layer 22 channels 48.0 kHz Constant 128 kb/s 2020-12-03
16978 RDS Relax 1974 AVC Version 2, High@L3.1 4:2:0 720 576 16:9 25.000 FPS Interlaced 2020-12-03
16978 RDS Relax 1975 MPEG Audio Version 1, Layer 22 channels 48.0 kHz Constant 128 kb/s 2020-12-03
16979 QVC HD 1833 AVC, High@L4.1 4:2:0 1920 1080 16:9 25.000 FPS Interlaced 2020-12-03
16979 QVC HD 1834 MPEG Audio Version 1, Layer 22 channels 48.0 kHz Constant 192 kb/s 2020-12-03
16980 BFC 1111 AVC, High@L3.2 4:2:0 720 576 16:9 25.000 FPS Constant (1 130 kb/s) Interlaced 2020-12-03
16980 BFC 1112 MPEG Audio Version 1, Layer 22 channels 48.0 kHz Constant 96.0 kb/s 2020-12-03
16981 Radio Number One 199 MPEG Audio Version 1, Layer 22 channels 48.0 kHz Constant 224 kb/s 2020-12-03
16988 TVA Vicenza 1993 AVC, High@L3 4:2:0 720 576 16:9 25.000 FPS Constant (740 kb/s) MBAFF 2020-12-03
16988 TVA Vicenza 1994 MPEG Audio Version 1, Layer 22 channels 48.0 kHz Constant 96.0 kb/s 2020-12-03
16992 VIDEOLINA 2193 MPEG Audio Version 1, Layer 21 channel 48.0 kHz Constant 96.0 kb/s 2020-12-03
16992 VIDEOLINA 2195 AVC, High@L3 4:2:0 720 576 16:9 25.000 FPS Constant (1 090 kb/s) MBAFF 2020-12-03
16993 Teleitalia 1191 AVC, High@L3.2 4:2:0 720 576 16:9 25.000 FPS MBAFF 2020-12-03
16993 Teleitalia 1192 MPEG Audio Version 1, Layer 22 channels 48.0 kHz Constant 64.0 kb/s 2020-12-03
16996 EURSAT 1131 AVC, High@L3.2 4:2:0 720 576 4:3 25.000 FPS MBAFF 2020-12-03
16996 EURSAT 1132 MPEG Audio Version 1, Layer 22 channels 48.0 kHz Constant 64.0 kb/s 2020-12-03
16998 Digiquest Promo 2001 AVC Version 2, High@L3.1 4:2:0 544 576 1.85:1 25.000 FPS Interlaced 2020-12-03
16998 Digiquest Promo 2202 MPEG Audio Version 1, Layer 22 channels 48.0 kHz Constant 64.0 kb/s 2020-12-03
16999 Vivid Red HD 2110 AVC, High@L4.1 N/A N/A 2020-12-03
16999 Vivid Red HD 2111 MPEG Audio 100.0 kb/s 2020-12-03

Corrections / mises à jour

Légende

8K - Ultra HD

4K - Ultra HD

Haute définition

Diffusion partielle ou totale en 16/9

     

Video: MPEG-4/AVC/H-264

     

Video: MPEG-H/HEVC/H-265

     

Video: MPEG-I/VVC/H-266

     

Clair

     

Crypté

Affiche une capture d´image

3D

Vidéos en Direct

+

Historique des news

     

DVB-S

     

DVB-S2

     

DVB-S2X


PROFIL - ACCUEIL - NEWS - SATELLITES - BOUQUETS - CHAINES - RECHERCHE - FAISCEAUX - FEEDS - CIMETIERE - Corrections / mises à jour

Le contenu de ce site est protégé par copyright et appartient à KingOfSat, excepté les images contenues dans les captures d'écran qui appartiennent à leurs propriétaires respectifs. Ces images sont uniquement proposées à des fins d'illustration, d'identification et de promotion des chaînes TV correspondantes. Pour toute question / remarque relative au copyright, merci de contacter le webmaster.